Time;durP1;ratioP1;P1;durP2;ratioP2;P2;SDS_P1;SDS_P2;PMS_P1;PMS_P2;Temp;Humidity;BMP_temperature;BMP_pressure;BME280_temperature;BME280_humidity;BME280_pressure;Samples;Min_cycle;Max_cycle;Signal;HPM_P1;HPM_P2
2021/11/01 00:00:21;;;;;;;8.57;5.90;;;;;;;13.26;91.82;99021.28;5027522;28;20403;-79
2021/11/01 00:02:47;;;;;;;5.67;4.93;;;;;;;13.27;91.78;99013.94;5017104;28;20395;-79
2021/11/01 00:05:13;;;;;;;5.72;5.07;;;;;;;13.29;91.96;99007.09;5020144;28;20447;-79
2021/11/01 00:07:39;;;;;;;8.82;4.80;;;;;;;13.31;91.78;99013.03;5012575;28;20466;-79
2021/11/01 00:10:05;;;;;;;5.03;4.53;;;;;;;13.30;91.62;99014.16;5021718;28;20568;-79
2021/11/01 00:12:32;;;;;;;5.47;4.80;;;;;;;13.30;91.63;99021.50;5017482;28;20395;-79
2021/11/01 00:14:57;;;;;;;6.18;4.57;;;;;;;13.29;91.67;99030.75;5018928;28;20419;-79
2021/11/01 00:17:25;;;;;;;6.53;4.75;;;;;;;13.29;91.41;99037.00;5025181;28;20391;-79
2021/11/01 00:19:51;;;;;;;5.97;5.05;;;;;;;13.29;91.65;99041.66;5018776;28;20441;-79
2021/11/01 00:22:16;;;;;;;7.40;4.30;;;;;;;13.27;91.50;99057.47;5011943;28;20782;-79
2021/11/01 00:24:41;;;;;;;5.88;4.25;;;;;;;13.27;91.74;99071.84;5019692;28;20461;-79
2021/11/01 00:27:07;;;;;;;4.33;3.93;;;;;;;13.26;91.64;99064.00;5029119;28;20415;-80
2021/11/01 00:29:32;;;;;;;5.05;3.30;;;;;;;13.23;91.41;99064.59;5014502;28;20401;-79
2021/11/01 00:31:57;;;;;;;5.70;2.43;;;;;;;13.17;91.54;99080.16;5026097;28;20404;-81
2021/11/01 00:34:23;;;;;;;5.40;1.60;;;;;;;13.07;90.76;99091.19;5024653;28;20411;-80
2021/11/01 00:36:49;;;;;;;4.20;1.60;;;;;;;13.05;90.26;99090.66;5026731;28;20418;-80
2021/11/01 00:39:14;;;;;;;4.20;1.50;;;;;;;13.07;89.73;99096.63;5018760;28;20412;-80
2021/11/01 00:41:40;;;;;;;3.87;1.23;;;;;;;12.99;89.12;99097.28;5021673;28;20415;-80
2021/11/01 00:44:05;;;;;;;6.10;1.45;;;;;;;12.95;88.91;99104.41;5034273;28;20824;-79
2021/11/01 00:46:30;;;;;;;2.90;1.00;;;;;;;12.92;88.66;99091.38;5023545;28;20926;-79
2021/11/01 00:48:55;;;;;;;3.53;1.00;;;;;;;12.89;88.44;99098.22;5029045;28;20402;-80
2021/11/01 00:51:21;;;;;;;9.63;1.10;;;;;;;12.82;88.08;99105.94;5026184;28;20417;-79
2021/11/01 00:53:50;;;;;;;4.77;1.00;;;;;;;12.74;88.26;99113.94;5017913;28;20408;-79
2021/11/01 00:56:16;;;;;;;5.78;1.25;;;;;;;12.75;88.44;99105.47;5024230;28;20901;-79
2021/11/01 00:58:42;;;;;;;5.40;1.10;;;;;;;12.76;88.12;99117.16;5030781;28;20461;-79
2021/11/01 01:01:08;;;;;;;3.30;1.20;;;;;;;12.75;87.74;99124.50;5025034;28;20762;-79
2021/11/01 01:03:33;;;;;;;3.38;0.73;;;;;;;12.74;88.04;99128.34;5013250;28;20413;-79
2021/11/01 01:06:02;;;;;;;4.30;1.00;;;;;;;12.72;88.30;99143.31;5017605;28;20444;-79
2021/11/01 01:08:27;;;;;;;3.13;0.95;;;;;;;12.74;88.59;99141.94;5026769;28;20886;-79
2021/11/01 01:10:53;;;;;;;8.63;2.00;;;;;;;12.74;88.48;99146.56;5017364;28;20404;-79
2021/11/01 01:13:19;;;;;;;3.47;1.50;;;;;;;12.75;88.64;99162.56;5027589;28;20403;-78
2021/11/01 01:16:31;;;;;;;2.58;1.25;;;;;;;12.75;88.77;99161.75;5021207;28;20795;-79
2021/11/01 01:18:34;;;;;;;3.88;1.00;;;;;;;12.72;88.57;99167.78;5011189;28;20429;-79
2021/11/01 01:21:11;;;;;;;3.30;1.10;;;;;;;12.70;88.80;99173.50;5025795;28;20415;-78
2021/11/01 01:23:37;;;;;;;4.32;1.40;;;;;;;12.65;88.77;99189.03;5033835;28;20391;-78
2021/11/01 01:26:02;;;;;;;2.67;1.07;;;;;;;12.62;88.83;99190.44;5023590;28;20395;-79
2021/11/01 01:28:27;;;;;;;5.20;1.50;;;;;;;12.55;89.09;99186.44;5017583;28;20883;-79
2021/11/01 01:30:55;;;;;;;5.67;1.17;;;;;;;12.47;89.11;99191.44;5032195;28;20402;-79
2021/11/01 01:33:20;;;;;;;5.40;0.85;;;;;;;12.40;88.77;99174.66;5021412;28;20461;-79
2021/11/01 01:35:46;;;;;;;6.60;1.40;;;;;;;12.36;89.13;99181.75;5020930;28;20899;-78
2021/11/01 01:38:12;;;;;;;6.17;1.50;;;;;;;12.27;88.75;99183.47;5025932;28;20415;-78
2021/11/01 01:40:38;;;;;;;4.88;0.93;;;;;;;12.17;88.76;99189.00;5028235;28;20395;-78
2021/11/01 01:43:05;;;;;;;7.15;1.02;;;;;;;12.13;88.74;99182.53;5027031;28;20399;-78
2021/11/01 01:45:34;;;;;;;5.60;1.13;;;;;;;12.17;89.01;99180.06;5033122;28;20390;-79
2021/11/01 01:48:00;;;;;;;6.78;1.33;;;;;;;12.10;88.46;99174.13;5018168;28;20392;-79
2021/11/01 01:50:26;;;;;;;7.03;1.10;;;;;;;12.07;88.61;99163.84;5017977;28;20439;-78
2021/11/01 01:52:53;;;;;;;7.20;1.85;;;;;;;12.04;88.38;99165.22;5025447;28;20412;-79
2021/11/01 01:55:19;;;;;;;3.80;0.82;;;;;;;12.01;88.29;99165.81;5023572;28;20855;-80
2021/11/01 01:57:46;;;;;;;6.70;1.40;;;;;;;11.93;88.23;99166.41;5020022;28;20404;-79
2021/11/01 02:01:01;;;;;;;5.23;1.17;;;;;;;11.92;88.22;99168.31;5020771;28;20414;-79
2021/11/01 02:03:05;;;;;;;7.63;1.67;;;;;;;11.86;88.23;99168.63;5012603;28;20451;-79
2021/11/01 02:05:40;;;;;;;5.82;1.13;;;;;;;11.80;88.33;99170.59;5018695;28;20450;-80
2021/11/01 02:08:09;;;;;;;7.90;1.67;;;;;;;11.72;88.45;99165.75;5023853;28;20432;-80
2021/11/01 02:10:42;;;;;;;5.60;1.00;;;;;;;11.78;88.81;99144.84;5028565;28;20589;-79
2021/11/01 02:13:31;;;;;;;7.95;1.10;;;;;;;11.79;88.26;99135.56;5031842;28;20900;-79
2021/11/01 02:16:00;;;;;;;3.05;0.77;;;;;;;11.71;88.02;99138.91;5014227;28;20504;-80
2021/11/01 02:18:29;;;;;;;6.10;1.20;;;;;;;11.70;87.94;99129.13;5018871;28;20445;-79
2021/11/01 02:21:02;;;;;;;9.27;1.30;;;;;;;11.69;87.64;99135.66;5020097;28;20396;-80
2021/11/01 02:23:32;;;;;;;6.10;1.30;;;;;;;11.66;87.83;99131.59;5014764;28;20393;-80
2021/11/01 02:26:00;;;;;;;8.07;1.40;;;;;;;11.62;87.97;99140.59;5016197;28;20392;-79
2021/11/01 02:28:30;;;;;;;7.00;1.00;;;;;;;11.58;88.09;99137.63;5021874;28;20403;-79
2021/11/01 02:30:56;;;;;;;5.63;0.90;;;;;;;11.59;88.36;99139.25;5021633;28;20409;-79
2021/11/01 02:33:23;;;;;;;4.45;1.00;;;;;;;11.62;88.29;99151.44;5028407;28;20406;-81
2021/11/01 02:35:50;;;;;;;6.10;1.50;;;;;;;11.60;87.98;99150.91;5028101;28;20408;-80
2021/11/01 02:38:18;;;;;;;7.18;1.52;;;;;;;11.65;88.63;99159.84;5018969;28;20876;-80
2021/11/01 02:40:45;;;;;;;8.90;1.37;;;;;;;11.67;88.94;99168.50;5022623;28;20452;-80
2021/11/01 02:43:10;;;;;;;5.78;0.90;;;;;;;11.65;89.18;99178.84;5016173;28;20405;-80
2021/11/01 02:45:36;;;;;;;8.57;1.55;;;;;;;11.65;88.82;99183.44;5021209;28;20401;-80
2021/11/01 02:48:02;;;;;;;8.33;1.17;;;;;;;11.65;88.74;99178.03;5024586;28;20420;-80
2021/11/01 02:50:27;;;;;;;6.22;1.25;;;;;;;11.60;88.35;99181.56;5018091;28;20407;-81
2021/11/01 02:52:53;;;;;;;6.33;1.33;;;;;;;11.57;88.37;99175.91;5016846;28;20411;-80
2021/11/01 02:55:20;;;;;;;5.22;2.03;;;;;;;11.59;88.78;99171.81;5028127;28;20407;-80
2021/11/01 02:57:46;;;;;;;9.35;1.30;;;;;;;11.60;88.51;99178.03;5019803;28;20401;-80
2021/11/01 03:00:13;;;;;;;7.57;1.30;;;;;;;11.58;88.95;99181.06;5012742;28;20503;-80
2021/11/01 03:02:38;;;;;;;4.15;0.90;;;;;;;11.54;88.58;99173.75;5025907;28;20399;-80
2021/11/01 03:05:09;;;;;;;8.05;1.17;;;;;;;11.49;88.84;99177.31;5014637;28;20852;-80
2021/11/01 03:07:36;;;;;;;8.02;1.67;;;;;;;11.50;88.51;99176.22;5018998;28;20488;-81
2021/11/01 03:10:04;;;;;;;6.00;1.10;;;;;;;11.52;88.51;99170.50;5021735;28;20417;-80
2021/11/01 03:12:30;;;;;;;6.90;1.60;;;;;;;11.52;88.25;99175.94;5017033;28;20413;-80
2021/11/01 03:14:59;;;;;;;4.05;1.25;;;;;;;11.45;88.20;99184.41;5015233;28;20416;-80
2021/11/01 03:17:26;;;;;;;4.53;1.57;;;;;;;11.47;88.13;99176.78;5005950;28;20459;-80
2021/11/01 03:20:00;;;;;;;8.23;1.27;;;;;;;11.46;88.35;99192.25;5021653;28;20902;-81
2021/11/01 03:22:31;;;;;;;5.30;1.23;;;;;;;11.49;88.35;99184.66;5016353;28;20389;-80
2021/11/01 03:31:41;;;;;;;8.40;1.70;;;;;;;11.49;88.27;99176.50;5019344;28;20470;-80
2021/11/01 03:34:09;;;;;;;8.00;2.03;;;;;;;11.49;88.23;99181.94;5026014;28;20403;-80
2021/11/01 03:36:36;;;;;;;6.03;1.02;;;;;;;11.48;88.05;99180.31;5028497;28;20391;-80
2021/11/01 03:39:05;;;;;;;3.75;1.42;;;;;;;11.47;88.42;99174.06;5017309;28;20418;-80
2021/11/01 03:41:32;;;;;;;7.18;1.55;;;;;;;11.47;88.42;99182.19;5019682;28;20387;-80
2021/11/01 03:44:06;;;;;;;8.75;1.35;;;;;;;11.44;88.40;99182.78;5024429;28;20415;-79
2021/11/01 03:46:41;;;;;;;6.25;1.55;;;;;;;11.48;88.71;99183.84;5015426;28;20426;-79
2021/11/01 03:49:09;;;;;;;2.20;0.85;;;;;;;11.48;88.52;99177.59;5022740;28;20392;-80
2021/11/01 03:51:44;;;;;;;6.15;0.90;;;;;;;11.45;88.08;99178.97;5015275;28;20409;-80
2021/11/01 03:54:14;;;;;;;5.07;1.30;;;;;;;11.44;88.18;99188.19;5015162;28;20632;-80
2021/11/01 03:56:41;;;;;;;4.85;1.08;;;;;;;11.43;88.25;99194.69;5029343;28;20411;-80
2021/11/01 03:59:07;;;;;;;5.07;1.33;;;;;;;11.44;88.39;99188.19;5019948;28;20431;-80
2021/11/01 04:01:41;;;;;;;6.60;1.40;;;;;;;11.43;88.14;99192.00;5011892;28;20400;-80
2021/11/01 04:04:08;;;;;;;7.00;1.00;;;;;;;11.41;88.03;99188.75;5012314;28;20404;-79
2021/11/01 04:06:34;;;;;;;4.68;1.10;;;;;;;11.40;87.66;99198.78;5018033;28;20889;-80
2021/11/01 04:08:59;;;;;;;2.58;1.00;;;;;;;11.40;87.48;99198.78;5029477;28;20427;-80
2021/11/01 04:11:25;;;;;;;5.33;1.17;;;;;;;11.42;87.52;99196.63;5032069;28;20383;-80
2021/11/01 04:13:57;;;;;;;7.60;1.55;;;;;;;11.41;87.65;99203.13;5032755;28;20395;-80
2021/11/01 04:16:29;;;;;;;5.45;1.33;;;;;;;11.42;87.65;99204.78;5019863;28;20393;-80
2021/11/01 04:19:01;;;;;;;6.18;1.13;;;;;;;11.36;87.00;99203.16;5025808;28;20438;-80
2021/11/01 04:21:26;;;;;;;6.20;1.08;;;;;;;11.37;87.27;99202.06;5019453;28;20389;-80
2021/11/01 04:23:54;;;;;;;6.18;0.90;;;;;;;11.37;86.71;99196.66;5031281;28;20748;-80
2021/11/01 04:26:21;;;;;;;5.10;1.10;;;;;;;11.39;87.03;99205.31;5031686;28;20936;-80
2021/11/01 04:28:46;;;;;;;8.07;1.58;;;;;;;11.39;87.26;99212.66;5026440;28;20418;-80
2021/11/01 04:31:18;;;;;;;4.15;1.27;;;;;;;11.37;87.38;99215.63;5034414;28;20399;-80
2021/11/01 04:33:44;;;;;;;37.83;4.03;;;;;;;11.38;87.49;99217.25;5029008;28;20766;-80
2021/11/01 04:36:10;;;;;;;6.80;1.87;;;;;;;11.36;87.68;99216.72;5028695;28;20404;-80
2021/11/01 04:38:55;;;;;;;4.60;1.77;;;;;;;11.33;87.47;99217.28;5018528;28;20919;-80
2021/11/01 04:41:28;;;;;;;9.40;2.20;;;;;;;11.31;87.79;99215.94;5031929;28;20488;-80
2021/11/01 04:54:31;;;;;;;10.95;2.30;;;;;;;11.38;87.60;99206.41;5019386;28;20511;-80
2021/11/01 04:56:57;;;;;;;8.93;2.40;;;;;;;11.39;87.61;99209.94;5013177;28;20401;-80
2021/11/01 04:59:23;;;;;;;5.50;1.27;;;;;;;11.37;87.76;99221.06;5027654;28;20428;-80
2021/11/01 05:01:51;;;;;;;4.45;1.13;;;;;;;11.35;87.61;99228.66;5021961;28;20395;-80
2021/11/01 05:04:22;;;;;;;4.68;1.23;;;;;;;11.31;87.70;99211.31;5033807;28;20825;-80
2021/11/01 05:06:51;;;;;;;8.20;1.90;;;;;;;11.31;87.70;99208.63;5016451;28;20756;-79
2021/11/01 05:20:03;;;;;;;7.00;1.45;;;;;;;11.36;87.18;99205.88;5024995;28;20403;-80
2021/11/01 05:25:00;;;;;;;6.00;1.10;;;;;;;11.31;86.87;99197.78;5017464;28;20414;-80
2021/11/01 05:30:05;;;;;;;3.27;1.40;;;;;;;11.31;86.50;99181.50;5026699;28;20873;-80
2021/11/01 05:32:32;;;;;;;5.95;1.20;;;;;;;11.34;86.84;99193.69;5025620;28;20407;-80
2021/11/01 05:34:57;;;;;;;4.60;1.00;;;;;;;11.34;86.15;99185.53;5019654;28;20404;-80
2021/11/01 05:37:23;;;;;;;2.42;1.00;;;;;;;11.31;86.50;99195.06;5015626;28;20492;-80
2021/11/01 05:39:49;;;;;;;3.17;0.70;;;;;;;11.31;86.43;99219.47;5026372;28;20422;-80
2021/11/01 05:42:15;;;;;;;2.28;0.73;;;;;;;11.31;86.89;99208.63;5031728;28;20417;-80
2021/11/01 05:44:40;;;;;;;1.70;0.70;;;;;;;11.31;85.83;99205.91;5023251;28;20417;-80
2021/11/01 05:47:06;;;;;;;3.53;0.60;;;;;;;11.31;85.54;99192.34;5015825;28;20397;-80
2021/11/01 05:49:32;;;;;;;3.65;0.55;;;;;;;11.28;84.77;99190.19;5014325;28;20751;-79
2021/11/01 05:51:57;;;;;;;3.15;0.60;;;;;;;11.27;84.95;99188.56;5029383;28;20391;-80
2021/11/01 05:54:26;;;;;;;1.33;0.60;;;;;;;11.25;84.50;99179.91;5024372;28;20485;-80
2021/11/01 05:57:01;;;;;;;2.93;0.40;;;;;;;11.26;84.93;99208.63;5032836;28;20395;-79
2021/11/01 05:59:46;;;;;;;6.47;0.83;;;;;;;11.23;85.29;99206.47;5020766;28;20431;-80
2021/11/01 06:09:57;;;;;;;2.70;0.70;;;;;;;11.11;85.79;99229.59;5021371;28;20768;-80
2021/11/01 06:15:07;;;;;;;3.28;1.00;;;;;;;11.17;85.72;99221.16;5012629;28;20508;-80
2021/11/01 06:17:33;;;;;;;2.55;0.38;;;;;;;11.18;85.68;99220.06;5023437;28;20524;-78
2021/11/01 06:19:59;;;;;;;4.28;0.77;;;;;;;11.18;85.33;99211.13;5015041;28;20919;-78
2021/11/01 06:22:25;;;;;;;1.60;0.68;;;;;;;11.12;85.58;99206.81;5023448;28;20440;-78
2021/11/01 06:25:04;;;;;;;3.20;0.82;;;;;;;11.13;85.60;99211.94;5018040;28;20407;-79
2021/11/01 06:27:30;;;;;;;3.33;0.90;;;;;;;11.11;85.07;99197.88;5022329;28;20474;-78
2021/11/01 06:40:36;;;;;;;2.77;1.23;;;;;;;11.09;84.80;99215.50;5026492;28;20831;-78
2021/11/01 06:51:08;;;;;;;2.22;0.50;;;;;;;11.02;84.75;99256.47;5027437;28;20967;-81
2021/11/01 07:15:35;;;;;;;1.70;0.50;;;;;;;11.04;83.37;99272.44;5015068;28;20436;-79
2021/11/01 07:18:08;;;;;;;2.40;0.50;;;;;;;11.01;83.44;99271.13;5023847;28;20398;-77
2021/11/01 07:38:36;;;;;;;3.38;0.75;;;;;;;11.11;81.90;99278.41;5012572;28;20419;-78
2021/11/01 08:43:35;;;;;;;0.82;0.40;;;;;;;11.32;79.39;99282.66;5017679;28;20412;-80
2021/11/01 08:48:11;;;;;;;2.50;0.50;;;;;;;11.38;79.16;99285.06;5025915;28;20494;-81
2021/11/01 09:12:35;;;;;;;1.70;0.50;;;;;;;11.84;77.78;99265.84;5023180;28;20427;-79
2021/11/01 09:20:12;;;;;;;2.95;0.90;;;;;;;12.04;76.63;99278.47;5020211;28;20436;-79
2021/11/01 09:25:43;;;;;;;0.93;0.32;;;;;;;12.09;76.33;99281.13;5030299;28;20390;-87
2021/11/01 09:28:17;;;;;;;1.42;0.80;;;;;;;12.17;75.89;99275.09;5019780;28;20407;-79
2021/11/01 09:36:15;;;;;;;1.37;0.53;;;;;;;12.39;76.21;99276.28;5016168;28;20428;-78
2021/11/01 09:39:01;;;;;;;2.88;0.77;;;;;;;12.48;75.03;99279.97;5029461;28;20473;-76
2021/11/01 09:41:27;;;;;;;1.58;0.55;;;;;;;12.68;72.64;99280.91;5026740;28;20388;-77
2021/11/01 09:43:54;;;;;;;1.27;0.40;;;;;;;12.73;73.08;99281.66;5014252;28;20431;-77
2021/11/01 09:46:22;;;;;;;2.20;0.68;;;;;;;12.59;73.78;99290.75;5024053;28;20475;-80
2021/11/01 09:48:49;;;;;;;4.38;1.00;;;;;;;12.52;73.14;99296.53;5013079;28;20455;-79
2021/11/01 09:51:15;;;;;;;1.10;0.50;;;;;;;12.38;74.31;99295.59;5017680;28;20402;-79
2021/11/01 09:53:42;;;;;;;0.93;0.20;;;;;;;12.28;74.17;99299.16;5025314;28;20395;-79
2021/11/01 10:01:22;;;;;;;2.30;0.80;;;;;;;12.25;74.08;99275.28;5023645;28;20516;-79
2021/11/01 10:03:50;;;;;;;2.08;0.70;;;;;;;12.26;74.56;99273.41;5029068;28;20427;-76
2021/11/01 10:06:22;;;;;;;1.30;0.57;;;;;;;12.27;74.83;99261.44;5019482;28;20469;-80
2021/11/01 10:08:54;;;;;;;2.45;0.65;;;;;;;12.26;74.43;99279.66;5018452;28;20423;-78
2021/11/01 10:11:23;;;;;;;1.35;0.80;;;;;;;12.28;74.62;99276.66;5024535;28;20401;-77
2021/11/01 10:13:58;;;;;;;1.58;0.80;;;;;;;12.32;73.72;99267.63;5016412;28;20393;-78
2021/11/01 10:19:55;;;;;;;2.72;0.63;;;;;;;12.61;73.54;99294.03;5030012;28;20465;-78
2021/11/01 10:22:24;;;;;;;2.47;0.68;;;;;;;12.67;73.67;99292.88;4965746;28;20767;-79
2021/11/01 10:24:52;;;;;;;2.50;0.60;;;;;;;12.57;72.11;99284.81;5011761;28;20483;-77
2021/11/01 10:27:29;;;;;;;1.25;0.80;;;;;;;12.65;73.15;99284.19;5019749;28;20444;-77
2021/11/01 10:30:12;;;;;;;1.17;0.40;;;;;;;12.82;73.06;99284.56;5021256;28;20887;-77
2021/11/01 10:32:45;;;;;;;0.77;0.60;;;;;;;12.90;73.58;99284.75;5026875;28;20920;-77
2021/11/01 10:35:15;;;;;;;0.73;0.50;;;;;;;12.94;73.33;99279.56;5023791;28;20445;-78
2021/11/01 10:37:56;;;;;;;1.05;0.45;;;;;;;12.99;73.08;99276.75;5018584;28;20439;-77
2021/11/01 10:40:24;;;;;;;1.52;0.63;;;;;;;12.96;72.82;99270.00;5015599;28;20432;-77
2021/11/01 10:42:50;;;;;;;2.33;0.63;;;;;;;12.96;73.61;99266.47;5018192;28;20409;-77
2021/11/01 11:12:52;;;;;;;2.45;0.77;;;;;;;13.24;72.46;99243.03;5025758;28;20481;-78
2021/11/01 11:15:18;;;;;;;4.95;1.08;;;;;;;13.32;71.68;99240.47;5031449;28;20723;-77
2021/11/01 11:29:19;;;;;;;2.75;0.60;;;;;;;13.53;70.42;99213.81;5015640;28;20433;-77
2021/11/01 11:38:07;;;;;;;4.82;0.82;;;;;;;13.76;68.60;99212.91;5019086;28;20517;-78
2021/11/01 11:43:27;;;;;;;1.98;1.00;;;;;;;13.91;68.38;99215.38;5021336;28;20428;-77
2021/11/01 11:49:12;;;;;;;2.40;0.60;;;;;;;14.09;66.93;99196.59;5018984;28;20739;-78
2021/11/01 11:51:59;;;;;;;1.10;0.93;;;;;;;14.09;66.67;99189.22;5010814;28;20894;-78
2021/11/01 11:54:43;;;;;;;0.98;0.50;;;;;;;13.97;67.35;99184.25;5016584;28;20407;-77
2021/11/01 11:57:34;;;;;;;1.23;0.67;;;;;;;14.00;67.28;99189.09;5022529;28;20410;-77
2021/11/01 12:00:03;;;;;;;1.70;0.60;;;;;;;14.15;66.72;99168.97;5014541;28;20435;-77
2021/11/01 12:02:49;;;;;;;1.17;0.80;;;;;;;14.21;66.24;99184.09;5016436;28;20411;-78
2021/11/01 12:05:24;;;;;;;1.60;0.77;;;;;;;14.24;66.02;99183.50;5013674;28;20401;-77
2021/11/01 12:07:59;;;;;;;1.15;0.75;;;;;;;14.32;64.26;99182.84;5023993;28;20414;-77
2021/11/01 12:10:52;;;;;;;2.45;0.55;;;;;;;14.32;65.18;99187.47;5017034;28;20964;-78
2021/11/01 12:18:36;;;;;;;0.57;0.40;;;;;;;14.20;65.64;99163.41;5022808;28;20414;-77
2021/11/01 12:21:01;;;;;;;1.50;0.55;;;;;;;14.29;64.34;99163.53;5029352;28;20458;-78
2021/11/01 12:23:37;;;;;;;2.37;0.50;;;;;;;14.23;65.04;99160.09;5022130;28;20909;-77
2021/11/01 12:26:24;;;;;;;2.70;0.65;;;;;;;14.29;64.22;99171.72;5024862;28;20399;-78
2021/11/01 12:28:52;;;;;;;0.45;0.40;;;;;;;14.31;64.66;99158.59;5025272;28;20406;-78
2021/11/01 12:31:18;;;;;;;1.75;0.55;;;;;;;14.27;64.77;99165.75;5027789;28;20494;-78
2021/11/01 12:36:15;;;;;;;2.00;0.60;;;;;;;14.33;64.61;99151.75;5027512;28;20502;-79
2021/11/01 12:38:47;;;;;;;0.97;0.60;;;;;;;14.32;61.57;99143.88;5028335;28;20522;-78
2021/11/01 12:41:16;;;;;;;0.98;0.45;;;;;;;14.32;62.49;99143.88;5029389;28;20387;-78
2021/11/01 12:44:27;;;;;;;1.65;0.73;;;;;;;14.24;63.09;99141.81;5027376;28;20482;-78
2021/11/01 12:49:55;;;;;;;4.47;1.42;;;;;;;14.05;63.39;99152.78;5025026;28;20475;-78
2021/11/01 12:57:49;;;;;;;1.90;0.80;;;;;;;14.52;61.62;99127.94;5027213;28;20404;-79
2021/11/01 13:00:15;;;;;;;1.57;0.80;;;;;;;14.63;61.87;99128.56;5029498;28;20452;-78
2021/11/01 13:02:47;;;;;;;0.90;0.70;;;;;;;14.64;60.95;99134.81;5024833;28;20808;-78
2021/11/01 13:05:13;;;;;;;2.00;1.07;;;;;;;14.58;60.68;99123.22;5023795;28;20387;-77
2021/11/01 13:17:53;;;;;;;1.73;0.82;;;;;;;14.62;61.45;99116.03;5026260;28;20401;-79
2021/11/01 13:20:20;;;;;;;2.63;0.80;;;;;;;14.76;60.38;99125.00;5024399;28;20424;-79
2021/11/01 13:22:47;;;;;;;2.23;0.70;;;;;;;14.77;59.59;99123.91;5028694;28;20502;-79
2021/11/01 13:38:42;;;;;;;1.70;1.10;;;;;;;14.61;61.66;99111.69;5028044;28;20402;-78
2021/11/01 13:41:14;;;;;;;4.28;1.60;;;;;;;14.60;61.36;99101.09;5019898;28;20397;-77
2021/11/01 13:43:39;;;;;;;2.90;1.08;;;;;;;14.44;62.15;99095.94;5026565;28;20399;-77
2021/11/01 13:46:05;;;;;;;2.73;0.80;;;;;;;14.52;62.26;99108.84;5023177;28;20741;-77
2021/11/01 13:48:32;;;;;;;5.67;1.10;;;;;;;14.60;61.45;99110.06;5022861;28;20410;-77
2021/11/01 13:51:03;;;;;;;4.22;1.23;;;;;;;14.66;62.31;99108.84;5023777;28;20777;-80
2021/11/01 13:53:33;;;;;;;1.88;0.82;;;;;;;14.77;61.93;99104.81;5021083;28;20407;-78
2021/11/01 13:56:15;;;;;;;3.85;1.15;;;;;;;14.88;61.30;99099.97;5024291;28;20420;-76
2021/11/01 13:58:53;;;;;;;3.03;1.00;;;;;;;14.69;60.92;99105.53;5031347;28;20388;-77
2021/11/01 14:01:35;;;;;;;4.10;1.10;;;;;;;14.54;61.41;99100.38;5017670;28;20910;-77
2021/11/01 14:15:04;;;;;;;6.40;1.35;;;;;;;14.57;61.04;99090.78;5022075;28;20396;-77
2021/11/01 15:03:57;;;;;;;4.80;0.90;;;;;;;13.37;67.43;99104.34;5027809;28;20407;-77
2021/11/01 15:09:11;;;;;;;3.05;1.40;;;;;;;13.30;68.80;99109.38;5026952;28;20409;-77
2021/11/01 15:14:31;;;;;;;5.07;2.05;;;;;;;13.17;70.04;99123.69;5031786;28;20921;-77
2021/11/01 15:22:46;;;;;;;4.28;1.67;;;;;;;12.85;72.30;99140.69;5015009;28;20807;-77
2021/11/01 15:38:51;;;;;;;5.38;2.00;;;;;;;12.87;75.22;99115.94;5017829;28;20422;-77
2021/11/01 15:41:45;;;;;;;6.63;1.73;;;;;;;12.84;75.92;99111.88;5030675;28;20392;-78
2021/11/01 16:17:06;;;;;;;11.02;4.50;;;;;;;11.65;79.90;99112.91;5025589;28;20403;-77
2021/11/01 16:19:39;;;;;;;9.03;4.50;;;;;;;11.57;80.18;99118.91;5020526;28;20499;-77
2021/11/01 16:22:09;;;;;;;7.70;4.78;;;;;;;11.54;80.39;99117.59;5023633;28;20410;-77
2021/11/01 16:24:35;;;;;;;8.57;5.70;;;;;;;11.51;80.36;99118.16;5028927;28;20395;-77
2021/11/01 16:27:02;;;;;;;7.70;4.72;;;;;;;11.46;80.36;99123.59;5020222;28;20397;-77
2021/11/01 16:30:16;;;;;;;9.30;4.30;;;;;;;11.44;80.39;99128.50;5020969;28;20407;-77
2021/11/01 16:32:25;;;;;;;11.27;4.93;;;;;;;11.43;80.44;99119.56;5020834;28;20490;-77
2021/11/01 16:34:56;;;;;;;7.70;4.30;;;;;;;11.44;80.30;99117.66;5022797;28;20415;-77
2021/11/01 16:38:02;;;;;;;6.20;4.07;;;;;;;11.35;80.48;99125.59;5018392;28;20803;-77
2021/11/01 16:40:13;;;;;;;9.38;4.28;;;;;;;11.32;80.12;99123.47;5019574;28;20775;-77
2021/11/01 16:42:42;;;;;;;9.47;5.27;;;;;;;11.29;79.99;99129.44;5026670;28;20482;-77
2021/11/01 16:45:33;;;;;;;9.95;4.63;;;;;;;11.26;79.84;99124.56;5018296;28;20419;-77
2021/11/01 16:48:00;;;;;;;9.55;5.43;;;;;;;11.24;80.28;99118.63;5030803;28;20395;-77
2021/11/01 16:50:26;;;;;;;18.48;7.43;;;;;;;11.20;80.29;99120.25;5026384;28;20407;-76
2021/11/01 16:52:52;;;;;;;20.30;9.27;;;;;;;11.19;80.80;99131.41;5023653;28;20405;-77
2021/11/01 16:55:21;;;;;;;20.92;10.23;;;;;;;11.15;80.31;99124.91;5018456;28;20437;-76
2021/11/01 16:57:53;;;;;;;14.90;8.25;;;;;;;11.14;79.77;99128.72;5019565;28;20411;-77
2021/11/01 17:05:45;;;;;;;4.68;3.17;;;;;;;11.07;79.88;99126.31;5016440;28;20478;-77
2021/11/01 17:11:05;;;;;;;6.75;2.55;;;;;;;11.02;79.54;99129.06;5030149;28;20401;-76
2021/11/01 17:21:18;;;;;;;3.53;2.50;;;;;;;10.98;78.92;99124.47;5022410;28;20955;-78
2021/11/01 17:22:02;;;;;;;3.30;2.60;;;;;;;10.91;78.03;99125.59;5025325;28;20502;-76
2021/11/01 18:36:40;;;;;;;6.53;2.35;;;;;;;10.03;80.35;99134.53;5006773;28;20477;-77
2021/11/01 18:39:27;;;;;;;4.50;2.50;;;;;;;10.01;80.56;99129.38;5006289;28;20473;-77
2021/11/01 18:42:07;;;;;;;5.10;3.20;;;;;;;9.95;80.67;99132.38;5007818;28;20415;-78
2021/11/01 18:52:57;;;;;;;10.65;6.97;;;;;;;9.82;80.82;99133.75;5006094;28;20446;-78
2021/11/01 18:55:23;;;;;;;13.90;8.97;;;;;;;9.79;80.79;99139.69;5014598;28;20417;-78
2021/11/01 18:57:51;;;;;;;15.95;9.80;;;;;;;9.78;80.67;99136.19;5007907;28;20422;-79
2021/11/01 19:00:17;;;;;;;15.55;9.43;;;;;;;9.78;80.36;99135.41;5006553;28;20434;-78
2021/11/01 19:02:51;;;;;;;12.93;9.27;;;;;;;9.77;80.79;99133.75;5004483;28;20893;-78
2021/11/01 19:05:27;;;;;;;12.27;8.30;;;;;;;9.75;80.92;99128.59;5006302;28;20418;-78
2021/11/01 19:13:40;;;;;;;10.60;7.90;;;;;;;9.70;80.92;99119.69;5007460;28;20509;-78
2021/11/01 20:03:46;;;;;;;13.63;8.05;;;;;;;9.21;80.75;99135.63;5014061;28;20464;-78
2021/11/01 20:09:25;;;;;;;13.80;7.30;;;;;;;9.17;80.84;99145.34;5012701;28;20441;-78
2021/11/01 20:12:03;;;;;;;7.68;4.85;;;;;;;9.16;80.95;99138.31;5012060;28;20427;-78
2021/11/01 21:24:30;;;;;;;13.90;6.85;;;;;;;9.10;80.30;99142.88;5010986;28;20774;-78
2021/11/01 21:27:17;;;;;;;13.15;6.93;;;;;;;8.54;80.47;99127.59;5022996;28;20434;-78
2021/11/01 21:29:46;;;;;;;6.33;3.30;;;;;;;8.48;79.19;99132.16;5031148;28;20388;-78
2021/11/01 21:32:11;;;;;;;59.30;28.42;;;;;;;8.41;78.42;99123.47;5018766;28;20511;-78
2021/11/01 21:34:54;;;;;;;3.90;2.67;;;;;;;8.33;77.92;99122.09;5032631;28;20482;-78
2021/11/01 21:37:20;;;;;;;2.03;1.65;;;;;;;8.26;78.08;99123.38;5028694;28;20403;-78
2021/11/01 21:39:45;;;;;;;1.45;0.70;;;;;;;8.17;77.55;99120.34;5024243;28;20431;-78
2021/11/01 21:42:10;;;;;;;1.50;0.77;;;;;;;8.07;78.64;99123.00;5028967;28;20402;-78
2021/11/01 21:44:38;;;;;;;3.00;1.47;;;;;;;8.01;78.52;99117.81;5032132;28;20403;-78
2021/11/01 21:47:04;;;;;;;2.30;1.60;;;;;;;8.01;78.73;99115.94;5026816;28;20437;-78
2021/11/01 21:49:29;;;;;;;3.70;1.73;;;;;;;7.97;78.22;99105.94;5026945;28;20685;-78
2021/11/01 21:51:56;;;;;;;3.77;1.40;;;;;;;7.95;78.79;99105.38;5027629;28;20910;-78
2021/11/01 21:56:56;;;;;;;11.65;6.63;;;;;;;8.00;78.92;99094.63;5021937;28;20496;-78
2021/11/01 22:10:03;;;;;;;32.92;15.55;;;;;;;8.12;79.17;99090.66;5026707;28;20435;-78
2021/11/01 22:18:09;;;;;;;29.17;14.80;;;;;;;8.12;79.85;99084.44;5017889;28;20453;-78
2021/11/01 22:20:38;;;;;;;25.98;12.50;;;;;;;8.08;79.35;99081.47;5026882;28;20819;-78
2021/11/01 22:23:12;;;;;;;17.10;9.63;;;;;;;8.05;79.66;99081.97;5026489;28;20403;-77
2021/11/01 22:25:51;;;;;;;16.55;8.90;;;;;;;8.05;79.46;99076.59;5020514;28;20387;-78
2021/11/01 22:33:56;;;;;;;6.47;3.40;;;;;;;8.08;79.59;99065.25;5023375;28;20522;-78
2021/11/01 22:39:10;;;;;;;6.57;3.58;;;;;;;8.13;79.50;99061.78;5024993;28;20406;-78
2021/11/01 22:41:42;;;;;;;5.00;3.40;;;;;;;8.10;79.52;99062.31;5024428;28;20437;-78
2021/11/01 22:47:03;;;;;;;6.50;4.40;;;;;;;8.10;79.92;99052.31;5021255;28;20407;-78
2021/11/01 22:57:52;;;;;;;5.93;4.07;;;;;;;8.20;80.34;99048.88;5020385;28;20426;-78
2021/11/01 23:00:21;;;;;;;5.43;3.90;;;;;;;8.23;81.16;99054.53;5016476;28;20409;-79
2021/11/01 23:02:53;;;;;;;4.10;2.92;;;;;;;8.23;80.35;99057.22;5017065;28;20415;-78